Time;durP1;ratioP1;P1;durP2;ratioP2;P2;SDS_P1;SDS_P2;PMS_P1;PMS_P2;Temp;Humidity;BMP_temperature;BMP_pressure;BME280_temperature;BME280_humidity;BME280_pressure;Samples;Min_cycle;Max_cycle;Signal;HPM_P1;HPM_P2
2020/12/25 00:00:59;;;;;;;12.75;8.63;;;7.10;98.60;;;;;;10543025;28;20051;-71
2020/12/25 00:06:10;;;;;;;12.70;8.65;;;7.00;99.00;;;;;;10542729;28;20411;-71
2020/12/25 00:11:12;;;;;;;10.88;7.93;;;7.00;98.90;;;;;;10543292;28;20113;-71
2020/12/25 00:16:15;;;;;;;9.93;7.45;;;7.00;98.90;;;;;;10542254;28;20086;-71
2020/12/25 00:21:17;;;;;;;9.32;5.95;;;7.00;98.70;;;;;;10542482;28;20044;-71
2020/12/25 00:26:29;;;;;;;9.20;5.50;;;6.90;98.10;;;;;;10514890;28;20447;-71
2020/12/25 00:31:36;;;;;;;8.65;5.07;;;6.90;97.90;;;;;;10531887;28;20091;-71
2020/12/25 00:36:39;;;;;;;8.75;6.00;;;6.90;97.50;;;;;;10540557;28;20048;-71
2020/12/25 00:41:45;;;;;;;9.70;5.82;;;7.00;97.90;;;;;;10534494;28;20049;-71
2020/12/25 00:46:47;;;;;;;6.47;5.00;;;7.00;97.90;;;;;;10500810;28;20048;-71
2020/12/25 00:51:49;;;;;;;7.28;4.93;;;7.00;97.50;;;;;;10528820;28;20514;-71
2020/12/25 00:56:50;;;;;;;5.97;4.38;;;7.00;97.50;;;;;;10536243;28;20083;-70
2020/12/25 01:01:52;;;;;;;5.13;3.78;;;6.90;97.70;;;;;;10528422;28;20044;-71
2020/12/25 01:06:53;;;;;;;5.85;3.20;;;6.90;97.50;;;;;;10528196;28;20462;-71
2020/12/25 01:12:01;;;;;;;4.32;3.03;;;6.80;97.20;;;;;;10517023;28;20567;-71
2020/12/25 01:17:03;;;;;;;5.07;3.10;;;6.80;97.30;;;;;;10535816;28;20083;-71
2020/12/25 01:22:04;;;;;;;4.68;3.10;;;6.90;96.70;;;;;;10514924;28;20044;-71
2020/12/25 01:27:06;;;;;;;5.13;2.97;;;6.90;97.10;;;;;;10517315;28;20109;-71
2020/12/25 01:32:07;;;;;;;4.38;2.90;;;6.90;96.30;;;;;;10525937;28;20476;-71
2020/12/25 01:37:08;;;;;;;6.50;3.33;;;6.70;96.50;;;;;;10539744;28;20048;-71
2020/12/25 01:42:10;;;;;;;6.13;3.35;;;6.60;96.50;;;;;;10538705;28;20044;-71
2020/12/25 01:47:16;;;;;;;5.93;3.70;;;6.40;96.40;;;;;;10538334;28;20109;-71
2020/12/25 01:52:18;;;;;;;6.32;3.30;;;6.40;96.70;;;;;;10538827;28;20060;-71
2020/12/25 01:57:22;;;;;;;7.07;3.40;;;6.40;96.70;;;;;;10538558;28;20056;-71
2020/12/25 02:02:25;;;;;;;4.65;3.00;;;6.50;96.70;;;;;;10538137;28;20492;-71
2020/12/25 02:07:26;;;;;;;6.47;3.85;;;6.60;96.50;;;;;;10536824;28;20048;-71
2020/12/25 02:12:28;;;;;;;13.68;8.00;;;6.70;97.30;;;;;;10538077;28;20048;-71
2020/12/25 02:17:30;;;;;;;8.13;4.10;;;6.60;97.20;;;;;;10536986;28;20568;-71
2020/12/25 02:22:31;;;;;;;7.22;4.00;;;6.60;97.20;;;;;;10536875;28;20484;-71
2020/12/25 02:27:33;;;;;;;6.20;3.85;;;6.70;97.10;;;;;;10536591;28;20136;-71
2020/12/25 02:32:35;;;;;;;7.93;4.10;;;6.70;96.90;;;;;;10537371;28;20176;-71
2020/12/25 02:37:47;;;;;;;6.97;4.40;;;6.70;97.10;;;;;;10536612;28;20077;-71
2020/12/25 02:42:49;;;;;;;9.30;4.72;;;6.80;97.20;;;;;;10536557;28;20048;-71
2020/12/25 02:47:50;;;;;;;8.85;4.68;;;6.80;96.90;;;;;;10535970;28;20499;-71
2020/12/25 02:52:52;;;;;;;7.22;4.90;;;6.90;96.90;;;;;;10536745;28;20089;-71
2020/12/25 02:57:53;;;;;;;9.70;4.68;;;6.80;96.90;;;;;;10533738;28;20056;-71
2020/12/25 03:02:55;;;;;;;7.50;4.90;;;6.80;96.70;;;;;;10535667;28;20079;-71
2020/12/25 03:08:07;;;;;;;9.75;4.30;;;6.80;97.00;;;;;;10535307;28;20047;-71
2020/12/25 03:13:11;;;;;;;6.55;4.40;;;6.80;96.50;;;;;;10535694;28;20048;-71
2020/12/25 03:18:12;;;;;;;6.82;4.40;;;6.80;96.50;;;;;;10534973;28;20397;-71
2020/12/25 03:23:14;;;;;;;7.18;4.30;;;6.80;96.30;;;;;;10529277;28;20036;-71
2020/12/25 03:28:15;;;;;;;6.30;4.00;;;6.90;96.50;;;;;;10540400;28;20048;-71
2020/12/25 03:33:17;;;;;;;5.53;4.00;;;6.90;96.30;;;;;;10543319;28;20056;-72
2020/12/25 03:38:24;;;;;;;6.55;4.22;;;6.70;96.20;;;;;;10543607;28;20131;-71
2020/12/25 03:43:25;;;;;;;5.63;3.92;;;6.60;95.90;;;;;;10543586;28;20097;-71
2020/12/25 03:48:30;;;;;;;10.02;4.55;;;6.70;96.60;;;;;;10542827;28;20051;-71
2020/12/25 03:53:31;;;;;;;6.93;4.80;;;6.80;96.60;;;;;;10543450;28;20085;-71
2020/12/25 03:58:33;;;;;;;9.40;4.45;;;6.80;96.20;;;;;;10542824;28;20040;-71
2020/12/25 04:03:34;;;;;;;6.20;4.88;;;6.70;96.40;;;;;;10543148;28;20047;-71
2020/12/25 04:08:44;;;;;;;7.53;4.82;;;6.70;96.60;;;;;;10542334;28;20044;-71
2020/12/25 04:13:47;;;;;;;6.90;5.00;;;6.60;96.60;;;;;;10541282;28;20093;-70
2020/12/25 04:18:48;;;;;;;7.45;5.15;;;6.50;96.10;;;;;;10541702;28;20067;-71
2020/12/25 04:23:50;;;;;;;6.65;4.65;;;6.50;96.20;;;;;;10542062;28;20052;-71
2020/12/25 04:28:52;;;;;;;6.28;4.38;;;6.60;96.00;;;;;;10540961;28;20043;-71
2020/12/25 04:33:54;;;;;;;7.22;4.53;;;6.50;95.90;;;;;;10541511;28;20076;-71
2020/12/25 04:39:06;;;;;;;7.35;4.93;;;6.50;96.00;;;;;;10517422;28;20040;-71
2020/12/25 04:44:08;;;;;;;6.72;4.28;;;6.60;95.80;;;;;;10540439;28;20109;-71
2020/12/25 04:49:10;;;;;;;6.20;3.97;;;6.50;95.00;;;;;;10540922;28;20047;-71
2020/12/25 04:54:11;;;;;;;6.78;4.10;;;6.50;94.60;;;;;;10540734;28;20500;-71
2020/12/25 04:59:13;;;;;;;6.70;4.35;;;6.40;94.70;;;;;;10540168;28;20044;-71
2020/12/25 05:04:18;;;;;;;6.05;4.13;;;6.40;94.80;;;;;;10538905;28;20478;-71
2020/12/25 05:09:22;;;;;;;6.03;4.10;;;6.30;95.30;;;;;;10540274;28;20492;-71
2020/12/25 05:14:34;;;;;;;5.80;4.13;;;6.30;95.00;;;;;;10539700;28;20073;-71
2020/12/25 05:19:35;;;;;;;7.88;4.28;;;6.30;94.10;;;;;;10537933;28;20144;-71
2020/12/25 05:24:39;;;;;;;6.47;3.75;;;6.30;94.70;;;;;;10511098;28;20528;-71
2020/12/25 05:29:41;;;;;;;6.10;3.80;;;6.20;93.80;;;;;;10533649;28;20495;-71
2020/12/25 05:34:44;;;;;;;6.22;3.80;;;6.10;93.80;;;;;;10538727;28;20055;-71
2020/12/25 05:39:47;;;;;;;7.43;4.15;;;6.20;93.90;;;;;;10539227;28;20486;-71
2020/12/25 05:44:49;;;;;;;7.63;3.70;;;6.10;93.30;;;;;;10537606;28;20051;-71
2020/12/25 05:49:50;;;;;;;6.97;3.50;;;6.10;93.90;;;;;;10536935;28;20040;-71
2020/12/25 05:55:42;;;;;;;5.43;3.55;;;6.20;93.90;;;;;;10538557;28;20451;-72
2020/12/25 06:00:44;;;;;;;6.57;3.70;;;6.20;93.40;;;;;;10537798;28;20097;-73
2020/12/25 06:05:46;;;;;;;8.63;3.75;;;6.20;93.70;;;;;;10538207;28;20079;-72
2020/12/25 06:10:48;;;;;;;7.53;3.78;;;6.10;93.40;;;;;;10538500;28;20048;-72
2020/12/25 06:15:50;;;;;;;6.25;3.70;;;6.10;93.20;;;;;;10536923;28;20055;-72
2020/12/25 06:20:58;;;;;;;6.97;3.70;;;6.20;93.00;;;;;;10537648;28;20036;-72
2020/12/25 06:26:06;;;;;;;5.90;3.25;;;6.10;92.70;;;;;;10536945;28;20537;-72
2020/12/25 06:31:29;;;;;;;6.90;2.88;;;6.00;92.60;;;;;;10536541;28;20105;-72
2020/12/25 06:36:32;;;;;;;5.47;3.00;;;6.10;91.80;;;;;;10532695;28;20052;-72
2020/12/25 06:41:35;;;;;;;6.20;3.35;;;6.10;92.10;;;;;;10536914;28;20484;-72
2020/12/25 06:46:37;;;;;;;5.70;3.20;;;6.20;92.70;;;;;;10528419;28;20049;-72
2020/12/25 06:51:46;;;;;;;8.93;4.85;;;6.30;92.80;;;;;;10525265;28;20044;-73
2020/12/25 06:56:51;;;;;;;8.90;4.72;;;6.20;92.80;;;;;;10532949;28;20389;-73
2020/12/25 07:01:52;;;;;;;7.32;4.50;;;6.20;93.40;;;;;;10533666;28;20445;-73
2020/12/25 07:07:02;;;;;;;7.80;4.18;;;6.20;93.10;;;;;;10532679;28;20044;-72
2020/12/25 07:12:11;;;;;;;6.43;4.10;;;6.10;92.80;;;;;;10523544;28;20087;-72
2020/12/25 07:17:13;;;;;;;5.72;3.25;;;6.10;93.20;;;;;;10528709;28;20056;-72
2020/12/25 07:22:15;;;;;;;8.73;3.40;;;5.90;92.00;;;;;;10526109;28;20052;-72
2020/12/25 07:27:17;;;;;;;5.88;3.45;;;5.80;92.70;;;;;;10533922;28;20047;-72
2020/12/25 07:32:18;;;;;;;6.53;3.72;;;5.80;92.80;;;;;;10528351;28;20576;-72
2020/12/25 07:37:20;;;;;;;8.15;3.50;;;5.80;92.90;;;;;;10531102;28;20456;-72
2020/12/25 07:42:21;;;;;;;7.85;3.65;;;5.70;91.80;;;;;;10533667;28;20124;-73
2020/12/25 07:47:23;;;;;;;7.10;3.70;;;5.60;92.70;;;;;;10507473;28;20048;-72
2020/12/25 07:52:26;;;;;;;8.50;3.88;;;5.40;93.00;;;;;;10491635;28;20454;-72
2020/12/25 07:57:47;;;;;;;6.85;3.33;;;5.40;93.20;;;;;;10526408;28;20120;-72
2020/12/25 08:02:52;;;;;;;7.90;3.25;;;5.10;92.60;;;;;;10530040;28;20071;-73
2020/12/25 08:07:54;;;;;;;5.22;2.60;;;5.10;92.20;;;;;;10532657;28;20152;-73
2020/12/25 08:12:58;;;;;;;5.32;2.88;;;4.90;92.00;;;;;;10534014;28;20434;-72
2020/12/25 08:18:03;;;;;;;6.95;2.97;;;5.00;92.50;;;;;;10535174;28;20056;-73
2020/12/25 08:23:05;;;;;;;5.10;3.08;;;5.00;91.80;;;;;;10531055;28;20105;-72
2020/12/25 08:28:06;;;;;;;4.80;3.00;;;5.00;92.30;;;;;;10540416;28;20291;-72
2020/12/25 08:33:08;;;;;;;10.68;6.15;;;5.00;92.00;;;;;;10528161;28;20164;-73
2020/12/25 08:38:09;;;;;;;4.85;2.40;;;4.90;92.20;;;;;;10539725;28;20214;-73
2020/12/25 08:43:16;;;;;;;5.45;2.60;;;5.00;92.00;;;;;;10538481;28;20044;-72
2020/12/25 08:48:18;;;;;;;6.10;2.97;;;5.10;92.00;;;;;;10521744;28;20504;-73
2020/12/25 08:53:21;;;;;;;7.03;2.63;;;5.10;92.10;;;;;;10515872;28;20071;-73
2020/12/25 08:58:23;;;;;;;7.38;2.70;;;5.00;91.70;;;;;;10538685;28;20048;-72
2020/12/25 09:03:36;;;;;;;5.32;2.38;;;5.20;92.00;;;;;;10538761;28;20048;-72
2020/12/25 09:08:39;;;;;;;5.10;2.60;;;5.30;91.50;;;;;;10538275;28;20101;-73
2020/12/25 09:13:41;;;;;;;7.13;3.10;;;5.40;92.10;;;;;;10539232;28;20052;-73
2020/12/25 09:18:43;;;;;;;6.15;3.55;;;5.50;91.50;;;;;;10538092;28;20135;-73
2020/12/25 09:23:45;;;;;;;8.30;4.00;;;5.40;91.80;;;;;;10538253;28;20450;-72
2020/12/25 09:28:47;;;;;;;10.68;5.38;;;5.40;91.80;;;;;;10537416;28;20521;-72
2020/12/25 09:33:48;;;;;;;9.93;4.72;;;5.40;91.90;;;;;;10538202;28;20128;-73
2020/12/25 09:38:50;;;;;;;7.53;3.90;;;5.40;92.20;;;;;;10537197;28;20044;-72
2020/12/25 09:43:51;;;;;;;12.80;7.85;;;5.30;91.60;;;;;;10537879;28;20097;-73
2020/12/25 09:48:53;;;;;;;15.27;3.72;;;5.40;91.40;;;;;;10525630;28;20047;-72
2020/12/25 09:53:54;;;;;;;6.47;2.95;;;5.30;91.40;;;;;;10511731;28;20100;-73
2020/12/25 09:58:56;;;;;;;6.85;2.92;;;5.20;91.20;;;;;;10536213;28;20101;-72
2020/12/25 10:03:57;;;;;;;7.20;3.40;;;5.30;91.50;;;;;;10537006;28;20449;-73
2020/12/25 10:08:58;;;;;;;17.27;6.40;;;5.40;90.60;;;;;;10522920;28;20061;-72
2020/12/25 10:14:00;;;;;;;10.25;4.15;;;5.40;90.60;;;;;;10513906;28;20098;-72
2020/12/25 10:19:01;;;;;;;8.52;3.10;;;5.30;90.60;;;;;;10535061;28;20048;-73
2020/12/25 10:30:15;;;;;;;5.60;3.05;;;5.50;88.30;;;;;;10535533;28;20056;-72
2020/12/25 10:35:17;;;;;;;5.55;2.65;;;5.60;89.60;;;;;;10534836;28;20044;-72
2020/12/25 10:40:18;;;;;;;9.35;3.03;;;5.80;88.10;;;;;;10535269;28;20478;-72
2020/12/25 10:45:23;;;;;;;12.73;4.85;;;5.90;88.30;;;;;;10525533;28;20769;-72
2020/12/25 10:50:24;;;;;;;5.68;2.47;;;6.00;88.10;;;;;;10506375;28;20840;-72
2020/12/25 10:55:26;;;;;;;7.07;2.45;;;6.00;87.00;;;;;;10524045;28;20086;-72
2020/12/25 11:00:27;;;;;;;6.80;2.40;;;6.10;86.00;;;;;;10533115;28;20044;-72
2020/12/25 11:05:29;;;;;;;7.15;2.90;;;6.10;87.50;;;;;;10533913;28;20055;-72
2020/12/25 11:10:30;;;;;;;7.90;2.60;;;6.20;87.20;;;;;;10527805;28;20036;-72
2020/12/25 11:15:32;;;;;;;9.45;2.90;;;6.30;86.40;;;;;;10525504;28;20424;-72
2020/12/25 11:20:33;;;;;;;8.93;2.45;;;6.30;86.60;;;;;;10534206;28;20044;-72
2020/12/25 11:25:38;;;;;;;5.35;2.08;;;6.30;87.60;;;;;;10532910;28;20522;-72
2020/12/25 11:30:39;;;;;;;8.82;2.30;;;6.40;87.90;;;;;;10533304;28;20112;-72
2020/12/25 11:35:41;;;;;;;8.70;2.92;;;6.20;86.70;;;;;;10532840;28;20478;-72
2020/12/25 11:40:45;;;;;;;8.75;2.63;;;6.20;87.80;;;;;;10519107;28;20052;-71
2020/12/25 11:45:46;;;;;;;9.30;2.53;;;6.10;87.70;;;;;;10512208;28;20454;-72
2020/12/25 11:50:48;;;;;;;9.32;2.47;;;6.10;88.40;;;;;;10528688;28;20048;-72
2020/12/25 11:55:50;;;;;;;10.70;2.70;;;6.30;87.60;;;;;;10499818;28;20060;-72
2020/12/25 12:00:51;;;;;;;8.38;2.65;;;6.40;87.90;;;;;;10510941;28;20336;-72
2020/12/25 12:05:53;;;;;;;9.63;2.97;;;6.30;87.60;;;;;;10502298;28;20087;-72
2020/12/25 12:10:55;;;;;;;9.45;2.72;;;6.10;87.70;;;;;;10513265;28;20048;-71
2020/12/25 12:15:56;;;;;;;8.68;2.70;;;6.30;88.10;;;;;;10526632;28;20440;-71
2020/12/25 12:20:58;;;;;;;5.28;2.28;;;6.40;87.80;;;;;;10520451;28;20040;-72
2020/12/25 12:25:59;;;;;;;6.75;2.40;;;6.50;87.90;;;;;;10522675;28;20102;-72
2020/12/25 12:31:01;;;;;;;7.18;2.50;;;6.40;85.90;;;;;;10540380;28;20044;-72
2020/12/25 12:36:03;;;;;;;9.05;2.35;;;6.60;86.50;;;;;;10539662;28;20507;-72
2020/12/25 12:41:05;;;;;;;8.07;2.47;;;6.70;86.70;;;;;;10526375;28;20527;-72
2020/12/25 12:46:06;;;;;;;6.65;2.45;;;6.50;86.40;;;;;;10539117;28;20059;-72
2020/12/25 12:51:08;;;;;;;8.02;2.63;;;6.60;86.00;;;;;;10540060;28;20546;-72
2020/12/25 12:56:12;;;;;;;8.43;2.65;;;6.60;86.80;;;;;;10503214;28;20063;-72
2020/12/25 13:01:21;;;;;;;6.75;2.42;;;6.50;87.00;;;;;;10538966;28;20052;-72
2020/12/25 13:06:23;;;;;;;5.57;2.30;;;6.80;87.10;;;;;;10538639;28;20052;-72
2020/12/25 13:11:29;;;;;;;7.72;2.60;;;7.10;87.50;;;;;;10534771;28;20105;-72
2020/12/25 13:16:31;;;;;;;11.50;3.15;;;7.30;87.50;;;;;;10538287;28;20058;-72
2020/12/25 13:21:33;;;;;;;9.10;3.63;;;7.40;85.40;;;;;;10537804;28;20105;-72
2020/12/25 13:26:34;;;;;;;7.63;4.80;;;7.20;86.10;;;;;;10537887;28;20048;-71
2020/12/25 13:31:36;;;;;;;10.13;3.20;;;7.30;87.70;;;;;;10538077;28;20508;-72
2020/12/25 13:36:38;;;;;;;7.65;2.72;;;7.30;88.00;;;;;;10537244;28;20105;-72
2020/12/25 13:41:40;;;;;;;7.97;2.92;;;7.00;85.80;;;;;;10528433;28;20048;-72
2020/12/25 13:46:46;;;;;;;8.18;2.88;;;7.00;87.50;;;;;;10518829;28;20136;-72
2020/12/25 13:51:52;;;;;;;8.20;3.50;;;6.90;87.40;;;;;;10537117;28;20048;-72
2020/12/25 13:56:56;;;;;;;10.52;3.15;;;6.90;89.00;;;;;;10517727;28;20155;-71
2020/12/25 14:01:57;;;;;;;7.20;3.88;;;6.80;90.00;;;;;;10523501;28;20048;-71
2020/12/25 14:06:59;;;;;;;9.48;4.95;;;6.80;90.10;;;;;;10514122;28;20052;-71
2020/12/25 14:12:00;;;;;;;9.65;4.80;;;7.00;90.50;;;;;;10535190;28;20128;-71
2020/12/25 14:17:02;;;;;;;11.82;5.57;;;7.00;90.20;;;;;;10535404;28;20060;-71
2020/12/25 14:22:03;;;;;;;13.70;5.18;;;6.80;90.20;;;;;;10528488;28;20094;-71
2020/12/25 14:27:05;;;;;;;13.52;4.70;;;6.60;90.40;;;;;;10528906;28;20047;-71
2020/12/25 14:32:08;;;;;;;16.20;5.50;;;6.50;90.60;;;;;;10535457;28;20526;-71
2020/12/25 14:37:10;;;;;;;14.98;5.05;;;6.50;90.10;;;;;;10535365;28;20137;-71
2020/12/25 14:42:12;;;;;;;14.68;5.72;;;6.60;90.30;;;;;;10531617;28;20117;-71
2020/12/25 14:47:13;;;;;;;12.32;5.80;;;6.70;90.40;;;;;;10534347;28;20105;-71
2020/12/25 14:52:15;;;;;;;13.65;6.75;;;6.80;90.20;;;;;;10535054;28;20458;-71
2020/12/25 14:57:16;;;;;;;17.20;6.63;;;6.70;90.60;;;;;;10503106;28;20382;-71
2020/12/25 15:02:18;;;;;;;14.18;7.50;;;6.60;90.40;;;;;;10522939;28;20040;-71
2020/12/25 15:07:20;;;;;;;19.10;7.68;;;6.60;90.30;;;;;;10533394;28;20048;-71
2020/12/25 15:12:23;;;;;;;20.25;8.25;;;6.40;90.60;;;;;;10527363;28;20101;-71
2020/12/25 15:17:24;;;;;;;20.20;9.65;;;6.10;90.80;;;;;;10515752;28;20044;-71
2020/12/25 15:22:25;;;;;;;17.70;8.38;;;6.10;91.30;;;;;;10537409;28;20044;-71
2020/12/25 15:27:29;;;;;;;23.00;9.23;;;5.90;91.50;;;;;;10542850;28;20438;-70
2020/12/25 15:32:30;;;;;;;22.05;9.90;;;6.00;91.80;;;;;;10542681;28;20121;-70
2020/12/25 15:37:32;;;;;;;20.70;10.02;;;5.90;92.00;;;;;;10541600;28;20044;-70
2020/12/25 15:42:33;;;;;;;18.10;10.88;;;5.80;91.90;;;;;;10542226;28;20093;-70
2020/12/25 15:47:53;;;;;;;22.08;10.45;;;5.80;92.20;;;;;;10542242;28;20062;-70
2020/12/25 15:52:54;;;;;;;23.70;11.05;;;5.60;92.50;;;;;;10541534;28;20040;-70
2020/12/25 15:57:55;;;;;;;19.95;10.80;;;5.80;92.60;;;;;;10521650;28;20052;-70
2020/12/25 16:02:57;;;;;;;28.88;12.65;;;5.80;92.80;;;;;;10541274;28;20036;-70
2020/12/25 16:07:59;;;;;;;24.25;10.57;;;5.80;92.90;;;;;;10541675;28;20414;-70
2020/12/25 16:13:04;;;;;;;22.48;10.38;;;5.80;92.80;;;;;;10540694;28;20047;-71
2020/12/25 16:18:06;;;;;;;23.85;10.95;;;5.90;92.70;;;;;;10540674;28;20048;-70
2020/12/25 16:23:07;;;;;;;23.77;11.13;;;5.90;92.90;;;;;;10524190;28;20447;-70
2020/12/25 16:28:09;;;;;;;22.88;9.90;;;5.80;92.90;;;;;;10523989;28;20075;-73
2020/12/25 16:33:10;;;;;;;27.10;10.43;;;5.80;93.30;;;;;;10528915;28;20470;-72
2020/12/25 16:38:12;;;;;;;24.10;10.93;;;5.80;93.20;;;;;;10540189;28;20052;-72
2020/12/25 16:43:13;;;;;;;21.35;11.15;;;5.70;93.50;;;;;;10537640;28;20098;-73
2020/12/25 16:48:15;;;;;;;19.88;11.35;;;5.80;94.40;;;;;;10535971;28;20052;-73
2020/12/25 16:53:17;;;;;;;28.80;14.20;;;5.80;94.30;;;;;;10533075;28;20052;-74
2020/12/25 16:58:20;;;;;;;29.02;14.82;;;5.90;94.80;;;;;;10511624;28;20119;-73
2020/12/25 17:03:21;;;;;;;23.95;12.35;;;5.70;94.60;;;;;;10510140;28;20455;-72
2020/12/25 17:08:23;;;;;;;20.63;12.82;;;5.60;94.60;;;;;;10504242;28;20055;-73
2020/12/25 17:13:24;;;;;;;22.88;14.75;;;5.40;94.80;;;;;;10502967;28;20041;-73
2020/12/25 17:18:26;;;;;;;24.63;14.07;;;5.40;94.80;;;;;;10519231;28;20072;-73
2020/12/25 17:23:27;;;;;;;25.67;13.88;;;5.40;94.80;;;;;;10515517;28;20040;-72
2020/12/25 17:28:29;;;;;;;28.98;14.60;;;5.20;94.80;;;;;;10509054;28;20048;-72
2020/12/25 17:33:30;;;;;;;24.95;13.82;;;5.10;95.00;;;;;;10501881;28;20040;-72
2020/12/25 17:38:32;;;;;;;29.27;15.43;;;5.10;94.80;;;;;;10515447;28;20073;-72
2020/12/25 17:43:38;;;;;;;25.42;16.02;;;5.00;95.00;;;;;;10525626;28;20105;-72
2020/12/25 17:48:41;;;;;;;28.88;17.92;;;5.10;94.90;;;;;;10534923;28;20055;-73
2020/12/25 17:53:44;;;;;;;28.50;15.93;;;4.90;94.90;;;;;;10535242;28;20055;-72
2020/12/25 17:58:47;;;;;;;28.95;16.17;;;4.90;95.40;;;;;;10527877;28;20097;-72
2020/12/25 18:03:49;;;;;;;27.90;17.08;;;4.90;95.50;;;;;;10501068;28;20067;-72
2020/12/25 18:08:51;;;;;;;31.25;16.38;;;4.90;95.80;;;;;;10528655;28;20079;-72
2020/12/25 18:13:53;;;;;;;35.03;19.67;;;4.90;95.70;;;;;;10533397;28;20083;-72
2020/12/25 18:18:55;;;;;;;35.95;18.92;;;4.70;95.90;;;;;;10534875;28;20499;-73
2020/12/25 18:23:56;;;;;;;31.50;16.95;;;4.80;95.90;;;;;;10506969;28;20113;-73
2020/12/25 18:28:58;;;;;;;28.95;17.73;;;4.80;95.80;;;;;;10508764;28;20518;-73
2020/12/25 18:34:00;;;;;;;33.67;18.00;;;4.70;96.10;;;;;;10510766;28;20075;-73
2020/12/25 18:39:03;;;;;;;35.25;21.30;;;4.70;96.30;;;;;;10533337;28;20442;-73
2020/12/25 18:44:04;;;;;;;41.83;21.45;;;4.50;96.30;;;;;;10534871;28;20052;-73
2020/12/25 18:49:06;;;;;;;38.75;19.98;;;4.40;96.60;;;;;;10525446;28;20434;-72
2020/12/25 18:54:08;;;;;;;32.05;21.33;;;4.30;96.90;;;;;;10533879;28;20048;-73
2020/12/25 18:59:13;;;;;;;40.42;23.77;;;4.40;97.00;;;;;;10533244;28;20139;-72
2020/12/25 19:04:18;;;;;;;40.90;25.30;;;4.40;96.90;;;;;;10536513;28;20044;-73
2020/12/25 19:15:35;;;;;;;36.53;21.88;;;4.20;97.80;;;;;;10535813;28;20036;-73
2020/12/25 19:20:38;;;;;;;35.17;21.90;;;4.10;97.70;;;;;;10535681;28;20503;-73
2020/12/25 19:25:39;;;;;;;30.30;21.00;;;4.20;97.50;;;;;;10535756;28;20109;-73
2020/12/25 19:30:41;;;;;;;43.83;25.85;;;4.30;97.70;;;;;;10536070;28;20052;-73
2020/12/25 19:35:42;;;;;;;34.65;22.00;;;4.50;97.90;;;;;;10535824;28;20044;-74
2020/12/25 19:40:44;;;;;;;33.20;20.05;;;4.60;97.80;;;;;;10535458;28;20040;-74
2020/12/25 19:45:45;;;;;;;34.17;20.70;;;4.50;97.60;;;;;;10535318;28;20048;-74
2020/12/25 19:50:47;;;;;;;39.40;22.02;;;4.40;97.20;;;;;;10536252;28;20472;-73
2020/12/25 19:55:48;;;;;;;46.42;23.33;;;4.20;97.10;;;;;;10535530;28;20069;-73
2020/12/25 20:00:50;;;;;;;36.35;20.58;;;4.10;97.20;;;;;;10513190;28;20045;-73
2020/12/25 20:05:53;;;;;;;35.33;21.55;;;4.00;97.30;;;;;;10511108;28;20093;-73
2020/12/25 20:10:56;;;;;;;35.33;21.42;;;4.00;97.30;;;;;;10518138;28;20048;-73
2020/12/25 20:15:58;;;;;;;39.28;23.80;;;4.20;97.50;;;;;;10524198;28;20106;-74
2020/12/25 20:20:59;;;;;;;41.75;24.65;;;4.30;97.80;;;;;;10527142;28;20055;-73
2020/12/25 20:26:01;;;;;;;35.15;22.02;;;4.20;98.10;;;;;;10539914;28;20077;-74
2020/12/25 20:31:02;;;;;;;38.97;20.95;;;4.20;98.10;;;;;;10540482;28;20504;-73
2020/12/25 20:36:04;;;;;;;40.75;22.35;;;4.10;97.90;;;;;;10532716;28;20044;-74
2020/12/25 20:41:06;;;;;;;43.78;23.00;;;4.20;97.90;;;;;;10538989;28;20109;-73
2020/12/25 20:46:08;;;;;;;46.42;25.15;;;4.30;97.90;;;;;;10539996;28;20128;-73
2020/12/25 20:51:12;;;;;;;50.78;26.42;;;4.10;97.70;;;;;;10532104;28;20055;-73
2020/12/25 20:56:14;;;;;;;52.08;26.05;;;3.90;97.70;;;;;;10532186;28;20052;-73
2020/12/25 21:01:16;;;;;;;48.97;27.80;;;3.80;97.80;;;;;;10522453;28;20078;-73
2020/12/25 21:06:18;;;;;;;55.47;26.55;;;3.70;97.80;;;;;;10538652;28;20412;-74
2020/12/25 21:11:22;;;;;;;40.15;23.77;;;3.60;98.00;;;;;;10539148;28;20048;-73
2020/12/25 21:16:25;;;;;;;53.63;26.75;;;3.70;98.20;;;;;;10536430;28;20052;-74
2020/12/25 21:21:26;;;;;;;58.78;28.65;;;3.60;97.80;;;;;;10504277;28;20138;-73
2020/12/25 21:26:28;;;;;;;62.30;26.27;;;3.50;98.20;;;;;;10518683;28;20052;-74
2020/12/25 21:31:29;;;;;;;42.55;24.17;;;3.40;98.20;;;;;;10538245;28;20412;-73
2020/12/25 21:36:31;;;;;;;48.15;24.63;;;3.30;98.50;;;;;;10534734;28;20044;-74
2020/12/25 21:41:46;;;;;;;46.20;24.02;;;3.20;98.60;;;;;;10537575;28;20067;-73
2020/12/25 21:46:48;;;;;;;45.55;22.40;;;3.30;98.60;;;;;;10537474;28;20048;-73
2020/12/25 21:51:49;;;;;;;39.40;21.52;;;3.30;98.30;;;;;;10525493;28;20044;-73
2020/12/25 21:56:51;;;;;;;45.15;22.90;;;3.40;98.50;;;;;;10517963;28;20059;-73
2020/12/25 22:01:52;;;;;;;51.25;23.23;;;3.50;98.20;;;;;;10518446;28;20048;-73
2020/12/25 22:06:55;;;;;;;50.97;26.20;;;3.40;98.00;;;;;;10527406;28;20052;-73
2020/12/25 22:11:56;;;;;;;48.33;25.60;;;3.40;98.00;;;;;;10497722;28;20056;-73
2020/12/25 22:16:58;;;;;;;43.95;22.83;;;3.30;98.10;;;;;;10505455;28;20048;-73
2020/12/25 22:22:02;;;;;;;37.45;22.38;;;3.30;98.40;;;;;;10519238;28;20045;-73
2020/12/25 22:27:03;;;;;;;51.72;23.60;;;3.30;98.60;;;;;;10517845;28;20131;-73
2020/12/25 22:32:05;;;;;;;40.60;21.52;;;3.40;98.20;;;;;;10533365;28;20048;-73
2020/12/25 22:37:07;;;;;;;51.17;23.73;;;3.20;98.60;;;;;;10534479;28;20131;-73
2020/12/25 22:42:09;;;;;;;55.75;24.25;;;3.20;98.30;;;;;;10528197;28;20051;-73
2020/12/25 22:47:11;;;;;;;52.95;23.17;;;3.10;98.20;;;;;;10511095;28;20407;-73
2020/12/25 22:52:12;;;;;;;39.60;21.95;;;3.00;98.60;;;;;;10530902;28;20040;-73
2020/12/25 22:57:14;;;;;;;51.83;23.77;;;3.00;98.70;;;;;;10522433;28;20048;-73
2020/12/25 23:02:15;;;;;;;47.13;22.83;;;3.10;98.30;;;;;;10518762;28;20048;-73
2020/12/25 23:07:18;;;;;;;44.55;22.40;;;2.90;98.50;;;;;;10535508;28;20044;-73
2020/12/25 23:12:20;;;;;;;54.35;22.83;;;2.80;98.80;;;;;;10535043;28;20101;-73
2020/12/25 23:17:23;;;;;;;38.25;20.38;;;2.80;98.70;;;;;;10535063;28;20466;-73
2020/12/25 23:22:25;;;;;;;41.03;21.40;;;2.90;98.90;;;;;;10534674;28;20499;-73
2020/12/25 23:27:27;;;;;;;56.75;23.33;;;2.80;99.10;;;;;;10534620;28;20091;-73
2020/12/25 23:32:35;;;;;;;43.28;22.17;;;3.00;99.30;;;;;;10534369;28;20093;-74
2020/12/25 23:37:36;;;;;;;43.05;22.90;;;3.10;99.60;;;;;;10494031;28;20052;-73
2020/12/25 23:42:38;;;;;;;33.72;20.65;;;3.20;99.60;;;;;;10537265;28;20553;-73
2020/12/25 23:47:41;;;;;;;45.60;22.48;;;3.30;99.50;;;;;;10540947;28;20060;-73
2020/12/25 23:52:43;;;;;;;38.60;20.35;;;3.40;99.70;;;;;;10543248;28;20043;-73
2020/12/25 23:57:48;;;;;;;38.88;21.27;;;3.50;99.50;;;;;;10542174;28;20078;-73
